Accueil
METAR-TAF:

METAR-TAF

Aéroports :

Farmingdale, New York, États-Unis

latitude: 40-44-03N, longitude: 073-25-01W, altitude: 24 m

Observation

Le bulletin a été fait il y a 25 minutes, à 19:53 UTC
Vent 18 kt de nord-ouest avec des rafales jusqu'à 30 kt
Température 9°C
Humidité 40%
Pression 996 hPa
Visibilité: 16.1 km
Quelques nuages à une hauteur de 5000 ft
Nuages épars à une hauteur de 9500 ft

METAR: KFRG 101953Z AUTO 31018G30KT 10SM FEW050 SCT095 09/M04 A2941 RMK AO2 PK WND 29034/1925 SLP960 T00941039

Heure: 16:18 (20:18 UTC)


TAF: absent

Observations et prévisions météorologiques de plus de 4000 aéroports (messages METAR et TAF).

Les stations disponibles sont représentées par des disques jaunes et rouges sur la carte.

Passer la souris dessus pour voir le nom de la station.

Cliquer dessus pour voir les observations et prévisions météorologiques.

Pour changer de carte: cliquez sur les boutons verts avec une croix noire pour zoomer, sur le bouton vert avec un tiret pour effectuer un zoom arrière, ou sur les flèches vertes pour les cartes adjacentes.


METAR-TAF: